sensor_id;sensor_type;location;lat;lon;timestamp;temperature;humidity
12557;DHT22;6344;49.932;8.308;2023-04-01T00:01:13;10.20;99.90
12557;DHT22;6344;49.932;8.308;2023-04-01T00:03:40;10.20;99.90
12557;DHT22;6344;49.932;8.308;2023-04-01T00:06:07;10.30;99.90
12557;DHT22;6344;49.932;8.308;2023-04-01T00:08:34;10.20;99.90
12557;DHT22;6344;49.932;8.308;2023-04-01T00:11:00;10.30;99.90
12557;DHT22;6344;49.932;8.308;2023-04-01T00:13:28;10.30;99.90
12557;DHT22;6344;49.932;8.308;2023-04-01T00:15:55;10.30;99.90
12557;DHT22;6344;49.932;8.308;2023-04-01T00:18:22;10.30;99.90
12557;DHT22;6344;49.932;8.308;2023-04-01T00:20:51;10.30;99.90
12557;DHT22;6344;49.932;8.308;2023-04-01T00:23:19;10.30;99.90
12557;DHT22;6344;49.932;8.308;2023-04-01T00:25:47;10.30;99.90
12557;DHT22;6344;49.932;8.308;2023-04-01T00:28:15;10.30;99.90
12557;DHT22;6344;49.932;8.308;2023-04-01T00:30:43;10.30;99.90
12557;DHT22;6344;49.932;8.308;2023-04-01T00:33:09;10.20;99.90
12557;DHT22;6344;49.932;8.308;2023-04-01T00:35:36;10.30;99.90
12557;DHT22;6344;49.932;8.308;2023-04-01T00:38:03;10.30;99.90
12557;DHT22;6344;49.932;8.308;2023-04-01T00:40:33;10.30;99.90
12557;DHT22;6344;49.932;8.308;2023-04-01T00:43:01;10.30;99.90
12557;DHT22;6344;49.932;8.308;2023-04-01T00:45:32;10.30;99.90
12557;DHT22;6344;49.932;8.308;2023-04-01T00:48:04;10.30;99.90
12557;DHT22;6344;49.932;8.308;2023-04-01T00:50:33;10.20;99.90
12557;DHT22;6344;49.932;8.308;2023-04-01T00:53:01;10.20;99.90
12557;DHT22;6344;49.932;8.308;2023-04-01T00:55:30;10.20;99.90
12557;DHT22;6344;49.932;8.308;2023-04-01T00:57:59;10.30;90.00
12557;DHT22;6344;49.932;8.308;2023-04-01T01:00:26;10.30;91.10
12557;DHT22;6344;49.932;8.308;2023-04-01T01:02:53;10.30;95.50
12557;DHT22;6344;49.932;8.308;2023-04-01T01:05:28;10.20;92.20
12557;DHT22;6344;49.932;8.308;2023-04-01T01:08:02;10.20;87.10
12557;DHT22;6344;49.932;8.308;2023-04-01T01:10:33;10.20;90.70
12557;DHT22;6344;49.932;8.308;2023-04-01T01:13:08;10.20;97.30
12557;DHT22;6344;49.932;8.308;2023-04-01T01:15:43;10.10;99.90
12557;DHT22;6344;49.932;8.308;2023-04-01T01:18:18;10.10;96.90
12557;DHT22;6344;49.932;8.308;2023-04-01T01:21:08;10.10;99.90
12557;DHT22;6344;49.932;8.308;2023-04-01T01:26:52;10.00;99.90
12557;DHT22;6344;49.932;8.308;2023-04-01T01:29:35;10.00;99.90
12557;DHT22;6344;49.932;8.308;2023-04-01T01:32:13;10.00;1.00
12557;DHT22;6344;49.932;8.308;2023-04-01T01:34:48;10.00;1.00
12557;DHT22;6344;49.932;8.308;2023-04-01T01:37:23;10.00;99.90
12557;DHT22;6344;49.932;8.308;2023-04-01T01:39:54;10.10;99.90
12557;DHT22;6344;49.932;8.308;2023-04-01T01:42:23;10.10;99.90
12557;DHT22;6344;49.932;8.308;2023-04-01T01:44:53;10.10;99.90
12557;DHT22;6344;49.932;8.308;2023-04-01T01:47:22;10.10;1.00
12557;DHT22;6344;49.932;8.308;2023-04-01T01:49:50;10.10;99.90
12557;DHT22;6344;49.932;8.308;2023-04-01T01:52:17;10.20;99.90
12557;DHT22;6344;49.932;8.308;2023-04-01T01:54:49;10.10;67.30
12557;DHT22;6344;49.932;8.308;2023-04-01T01:57:17;10.10;99.90
12557;DHT22;6344;49.932;8.308;2023-04-01T01:59:46;10.10;99.90
12557;DHT22;6344;49.932;8.308;2023-04-01T02:02:14;10.10;99.90
12557;DHT22;6344;49.932;8.308;2023-04-01T02:04:44;10.00;1.00
12557;DHT22;6344;49.932;8.308;2023-04-01T02:07:16;10.00;1.00
12557;DHT22;6344;49.932;8.308;2023-04-01T02:09:43;10.00;99.90
12557;DHT22;6344;49.932;8.308;2023-04-01T02:12:13;10.00;1.00
12557;DHT22;6344;49.932;8.308;2023-04-01T02:14:44;10.10;99.90
12557;DHT22;6344;49.932;8.308;2023-04-01T02:17:14;10.10;99.90
12557;DHT22;6344;49.932;8.308;2023-04-01T02:19:48;10.10;1.00
12557;DHT22;6344;49.932;8.308;2023-04-01T02:22:19;10.10;1.00
12557;DHT22;6344;49.932;8.308;2023-04-01T02:24:47;10.10;99.90
12557;DHT22;6344;49.932;8.308;2023-04-01T02:27:16;10.10;99.90
12557;DHT22;6344;49.932;8.308;2023-04-01T02:29:43;10.10;99.90
12557;DHT22;6344;49.932;8.308;2023-04-01T02:32:10;10.10;99.90
12557;DHT22;6344;49.932;8.308;2023-04-01T02:34:37;10.10;99.90
12557;DHT22;6344;49.932;8.308;2023-04-01T02:37:04;10.10;1.00
12557;DHT22;6344;49.932;8.308;2023-04-01T02:39:31;10.00;1.00
12557;DHT22;6344;49.932;8.308;2023-04-01T02:41:57;10.10;99.90
12557;DHT22;6344;49.932;8.308;2023-04-01T02:44:25;10.10;99.90
12557;DHT22;6344;49.932;8.308;2023-04-01T02:46:52;10.10;1.00
12557;DHT22;6344;49.932;8.308;2023-04-01T02:49:19;10.10;1.00
12557;DHT22;6344;49.932;8.308;2023-04-01T02:51:45;10.00;1.00
12557;DHT22;6344;49.932;8.308;2023-04-01T02:54:12;10.00;25.30
12557;DHT22;6344;49.932;8.308;2023-04-01T02:56:39;9.90;99.90
12557;DHT22;6344;49.932;8.308;2023-04-01T02:59:05;9.90;99.90
12557;DHT22;6344;49.932;8.308;2023-04-01T03:01:33;9.90;99.90
12557;DHT22;6344;49.932;8.308;2023-04-01T03:04:00;9.90;99.90
12557;DHT22;6344;49.932;8.308;2023-04-01T03:06:27;10.00;1.00
12557;DHT22;6344;49.932;8.308;2023-04-01T03:08:54;10.00;1.00
12557;DHT22;6344;49.932;8.308;2023-04-01T03:11:20;10.00;99.90
12557;DHT22;6344;49.932;8.308;2023-04-01T03:13:47;10.00;58.20
12557;DHT22;6344;49.932;8.308;2023-04-01T03:16:14;10.10;34.90
12557;DHT22;6344;49.932;8.308;2023-04-01T03:18:42;10.10;99.90
12557;DHT22;6344;49.932;8.308;2023-04-01T03:21:13;10.10;1.00
12557;DHT22;6344;49.932;8.308;2023-04-01T03:23:40;10.10;1.00
12557;DHT22;6344;49.932;8.308;2023-04-01T03:26:06;10.10;99.90
12557;DHT22;6344;49.932;8.308;2023-04-01T03:28:33;10.10;1.00
12557;DHT22;6344;49.932;8.308;2023-04-01T03:31:00;10.10;1.00
12557;DHT22;6344;49.932;8.308;2023-04-01T03:33:27;10.10;1.00
12557;DHT22;6344;49.932;8.308;2023-04-01T03:35:55;10.10;1.00
12557;DHT22;6344;49.932;8.308;2023-04-01T03:38:22;10.10;99.90
12557;DHT22;6344;49.932;8.308;2023-04-01T03:40:48;10.10;99.90
12557;DHT22;6344;49.932;8.308;2023-04-01T03:43:15;10.10;99.90
12557;DHT22;6344;49.932;8.308;2023-04-01T03:45:46;10.00;99.90
12557;DHT22;6344;49.932;8.308;2023-04-01T03:48:13;10.00;99.90
12557;DHT22;6344;49.932;8.308;2023-04-01T03:50:40;10.00;99.90
12557;DHT22;6344;49.932;8.308;2023-04-01T03:53:08;10.00;99.90
12557;DHT22;6344;49.932;8.308;2023-04-01T03:55:36;10.00;99.90
12557;DHT22;6344;49.932;8.308;2023-04-01T03:58:03;10.10;99.90
12557;DHT22;6344;49.932;8.308;2023-04-01T04:00:30;10.10;99.90
12557;DHT22;6344;49.932;8.308;2023-04-01T04:02:57;10.10;99.90
12557;DHT22;6344;49.932;8.308;2023-04-01T04:05:24;10.10;99.90
12557;DHT22;6344;49.932;8.308;2023-04-01T04:07:52;10.10;99.90
12557;DHT22;6344;49.932;8.308;2023-04-01T04:10:20;10.10;1.00
12557;DHT22;6344;49.932;8.308;2023-04-01T04:12:49;10.20;99.90
12557;DHT22;6344;49.932;8.308;2023-04-01T04:15:15;10.20;1.00
12557;DHT22;6344;49.932;8.308;2023-04-01T04:17:43;10.20;1.00
12557;DHT22;6344;49.932;8.308;2023-04-01T04:20:10;10.10;99.90
12557;DHT22;6344;49.932;8.308;2023-04-01T04:22:36;10.10;99.90
12557;DHT22;6344;49.932;8.308;2023-04-01T04:25:04;10.20;99.90
12557;DHT22;6344;49.932;8.308;2023-04-01T04:27:32;10.10;99.90
12557;DHT22;6344;49.932;8.308;2023-04-01T04:29:59;10.10;99.90
12557;DHT22;6344;49.932;8.308;2023-04-01T04:32:26;10.10;99.90
12557;DHT22;6344;49.932;8.308;2023-04-01T04:34:52;10.20;99.90
12557;DHT22;6344;49.932;8.308;2023-04-01T04:37:19;10.10;99.90
12557;DHT22;6344;49.932;8.308;2023-04-01T04:39:45;10.10;99.90
12557;DHT22;6344;49.932;8.308;2023-04-01T04:42:12;10.10;99.90
12557;DHT22;6344;49.932;8.308;2023-04-01T04:44:40;10.10;99.90
12557;DHT22;6344;49.932;8.308;2023-04-01T04:47:07;10.10;99.90
12557;DHT22;6344;49.932;8.308;2023-04-01T04:49:33;10.10;99.90
12557;DHT22;6344;49.932;8.308;2023-04-01T04:52:00;10.10;99.90
12557;DHT22;6344;49.932;8.308;2023-04-01T04:54:27;10.00;99.90
12557;DHT22;6344;49.932;8.308;2023-04-01T04:56:54;10.00;99.90
12557;DHT22;6344;49.932;8.308;2023-04-01T04:59:20;10.00;99.90
12557;DHT22;6344;49.932;8.308;2023-04-01T05:01:48;10.00;99.90
12557;DHT22;6344;49.932;8.308;2023-04-01T05:04:15;10.00;99.90
12557;DHT22;6344;49.932;8.308;2023-04-01T05:06:43;10.00;99.90
12557;DHT22;6344;49.932;8.308;2023-04-01T05:09:10;10.00;99.90
12557;DHT22;6344;49.932;8.308;2023-04-01T05:11:37;10.00;99.90
12557;DHT22;6344;49.932;8.308;2023-04-01T05:14:03;10.00;99.90
12557;DHT22;6344;49.932;8.308;2023-04-01T05:16:30;10.00;99.90
12557;DHT22;6344;49.932;8.308;2023-04-01T05:18:58;10.00;99.90
12557;DHT22;6344;49.932;8.308;2023-04-01T05:21:25;10.10;99.90
12557;DHT22;6344;49.932;8.308;2023-04-01T05:23:51;10.10;99.90
12557;DHT22;6344;49.932;8.308;2023-04-01T05:26:18;10.00;99.90
12557;DHT22;6344;49.932;8.308;2023-04-01T05:28:45;10.00;99.90
12557;DHT22;6344;49.932;8.308;2023-04-01T05:31:11;10.00;99.90
12557;DHT22;6344;49.932;8.308;2023-04-01T05:33:38;10.00;99.90
12557;DHT22;6344;49.932;8.308;2023-04-01T05:36:11;10.00;99.90
12557;DHT22;6344;49.932;8.308;2023-04-01T05:38:39;10.00;99.90
12557;DHT22;6344;49.932;8.308;2023-04-01T05:41:05;10.10;99.90
12557;DHT22;6344;49.932;8.308;2023-04-01T05:43:32;10.10;1.00
12557;DHT22;6344;49.932;8.308;2023-04-01T05:46:01;10.10;1.00
12557;DHT22;6344;49.932;8.308;2023-04-01T05:48:28;10.10;1.00
12557;DHT22;6344;49.932;8.308;2023-04-01T05:50:55;10.10;1.00
12557;DHT22;6344;49.932;8.308;2023-04-01T05:53:23;10.10;99.90
12557;DHT22;6344;49.932;8.308;2023-04-01T05:55:49;10.10;99.90
12557;DHT22;6344;49.932;8.308;2023-04-01T05:58:16;10.10;99.90
12557;DHT22;6344;49.932;8.308;2023-04-01T06:00:43;10.10;99.90
12557;DHT22;6344;49.932;8.308;2023-04-01T06:03:09;10.10;1.00
12557;DHT22;6344;49.932;8.308;2023-04-01T06:05:40;10.20;1.00
12557;DHT22;6344;49.932;8.308;2023-04-01T06:08:11;10.20;1.00
12557;DHT22;6344;49.932;8.308;2023-04-01T06:10:48;10.20;1.00
12557;DHT22;6344;49.932;8.308;2023-04-01T06:13:25;10.20;99.90
12557;DHT22;6344;49.932;8.308;2023-04-01T06:16:01;10.30;99.90
12557;DHT22;6344;49.932;8.308;2023-04-01T06:18:42;10.40;99.90
12557;DHT22;6344;49.932;8.308;2023-04-01T06:24:15;10.40;99.90
12557;DHT22;6344;49.932;8.308;2023-04-01T06:26:51;10.30;99.90
12557;DHT22;6344;49.932;8.308;2023-04-01T06:29:38;10.40;1.00
12557;DHT22;6344;49.932;8.308;2023-04-01T06:32:22;10.40;99.90
12557;DHT22;6344;49.932;8.308;2023-04-01T06:35:02;10.40;99.90
12557;DHT22;6344;49.932;8.308;2023-04-01T06:37:56;10.40;99.90
12557;DHT22;6344;49.932;8.308;2023-04-01T06:40:47;10.40;99.90
12557;DHT22;6344;49.932;8.308;2023-04-01T06:43:24;10.40;99.90
12557;DHT22;6344;49.932;8.308;2023-04-01T06:45:58;10.40;1.00
12557;DHT22;6344;49.932;8.308;2023-04-01T06:48:42;10.40;1.00
12557;DHT22;6344;49.932;8.308;2023-04-01T06:51:20;10.40;96.50
12557;DHT22;6344;49.932;8.308;2023-04-01T06:53:54;10.40;99.90
12557;DHT22;6344;49.932;8.308;2023-04-01T06:56:25;10.40;99.90
12557;DHT22;6344;49.932;8.308;2023-04-01T06:58:57;10.50;99.90
12557;DHT22;6344;49.932;8.308;2023-04-01T07:01:29;10.50;99.90
12557;DHT22;6344;49.932;8.308;2023-04-01T07:03:58;10.60;99.90
12557;DHT22;6344;49.932;8.308;2023-04-01T07:06:30;10.80;99.90
12557;DHT22;6344;49.932;8.308;2023-04-01T07:08:59;10.80;91.70
12557;DHT22;6344;49.932;8.308;2023-04-01T07:11:31;10.80;86.30
12557;DHT22;6344;49.932;8.308;2023-04-01T07:14:03;10.90;91.50
12557;DHT22;6344;49.932;8.308;2023-04-01T07:16:33;11.10;86.10
12557;DHT22;6344;49.932;8.308;2023-04-01T07:19:04;11.30;77.40
12557;DHT22;6344;49.932;8.308;2023-04-01T07:21:35;11.40;56.30
12557;DHT22;6344;49.932;8.308;2023-04-01T07:24:06;11.40;61.00
12557;DHT22;6344;49.932;8.308;2023-04-01T07:26:35;11.40;57.40
12557;DHT22;6344;49.932;8.308;2023-04-01T07:29:08;11.40;42.40
12557;DHT22;6344;49.932;8.308;2023-04-01T07:31:45;11.30;36.30
12557;DHT22;6344;49.932;8.308;2023-04-01T07:34:21;11.60;19.60
12557;DHT22;6344;49.932;8.308;2023-04-01T07:36:54;11.50;15.20
12557;DHT22;6344;49.932;8.308;2023-04-01T07:39:33;11.50;21.80
12557;DHT22;6344;49.932;8.308;2023-04-01T07:42:08;11.60;27.70
12557;DHT22;6344;49.932;8.308;2023-04-01T07:44:44;11.80;18.80
12557;DHT22;6344;49.932;8.308;2023-04-01T07:47:25;11.90;9.20
12557;DHT22;6344;49.932;8.308;2023-04-01T07:50:02;11.90;14.80
12557;DHT22;6344;49.932;8.308;2023-04-01T07:52:35;12.00;17.60
12557;DHT22;6344;49.932;8.308;2023-04-01T07:55:09;12.00;13.70
12557;DHT22;6344;49.932;8.308;2023-04-01T07:57:46;12.10;8.60
12557;DHT22;6344;49.932;8.308;2023-04-01T08:00:19;12.10;8.90
12557;DHT22;6344;49.932;8.308;2023-04-01T08:03:09;12.00;19.40
12557;DHT22;6344;49.932;8.308;2023-04-01T08:05:47;12.00;22.30
12557;DHT22;6344;49.932;8.308;2023-04-01T08:08:19;11.90;28.40
12557;DHT22;6344;49.932;8.308;2023-04-01T08:10:53;11.80;66.50
12557;DHT22;6344;49.932;8.308;2023-04-01T08:13:29;11.70;56.00
12557;DHT22;6344;49.932;8.308;2023-04-01T08:16:05;11.60;47.30
12557;DHT22;6344;49.932;8.308;2023-04-01T08:18:39;11.60;52.50
12557;DHT22;6344;49.932;8.308;2023-04-01T08:21:12;11.60;55.00
12557;DHT22;6344;49.932;8.308;2023-04-01T08:23:43;11.50;50.80
12557;DHT22;6344;49.932;8.308;2023-04-01T08:26:23;11.40;75.10
12557;DHT22;6344;49.932;8.308;2023-04-01T08:28:58;11.50;69.00
12557;DHT22;6344;49.932;8.308;2023-04-01T08:31:30;11.60;71.80
12557;DHT22;6344;49.932;8.308;2023-04-01T08:33:58;11.60;91.60
12557;DHT22;6344;49.932;8.308;2023-04-01T08:36:30;11.60;99.90
12557;DHT22;6344;49.932;8.308;2023-04-01T08:39:01;11.70;99.90
12557;DHT22;6344;49.932;8.308;2023-04-01T08:42:13;11.60;99.90
12557;DHT22;6344;49.932;8.308;2023-04-01T08:45:26;11.60;99.90
12557;DHT22;6344;49.932;8.308;2023-04-01T08:48:23;11.60;99.90
12557;DHT22;6344;49.932;8.308;2023-04-01T08:54:16;11.40;99.90
12557;DHT22;6344;49.932;8.308;2023-04-01T08:56:52;11.30;99.90
12557;DHT22;6344;49.932;8.308;2023-04-01T09:02:26;11.30;99.90
12557;DHT22;6344;49.932;8.308;2023-04-01T09:05:19;11.30;99.90
12557;DHT22;6344;49.932;8.308;2023-04-01T09:07:57;11.20;99.90
12557;DHT22;6344;49.932;8.308;2023-04-01T09:13:37;11.20;99.90
12557;DHT22;6344;49.932;8.308;2023-04-01T09:16:28;11.10;99.90
12557;DHT22;6344;49.932;8.308;2023-04-01T09:27:45;10.90;99.90
12557;DHT22;6344;49.932;8.308;2023-04-01T09:33:42;11.00;99.90
12557;DHT22;6344;49.932;8.308;2023-04-01T09:39:23;11.10;99.90
12557;DHT22;6344;49.932;8.308;2023-04-01T09:41:59;11.10;99.90
12557;DHT22;6344;49.932;8.308;2023-04-01T09:44:34;11.10;99.90
12557;DHT22;6344;49.932;8.308;2023-04-01T09:47:15;11.10;99.90
12557;DHT22;6344;49.932;8.308;2023-04-01T09:50:17;11.20;99.90
12557;DHT22;6344;49.932;8.308;2023-04-01T09:53:00;11.30;99.90
12557;DHT22;6344;49.932;8.308;2023-04-01T09:56:14;11.30;99.90
12557;DHT22;6344;49.932;8.308;2023-04-01T10:02:14;11.70;99.90
12557;DHT22;6344;49.932;8.308;2023-04-01T10:08:12;11.70;99.90
12557;DHT22;6344;49.932;8.308;2023-04-01T10:11:22;11.60;99.90
12557;DHT22;6344;49.932;8.308;2023-04-01T10:14:24;11.50;99.90
12557;DHT22;6344;49.932;8.308;2023-04-01T10:17:27;11.40;99.90
12557;DHT22;6344;49.932;8.308;2023-04-01T10:20:29;11.30;99.90
12557;DHT22;6344;49.932;8.308;2023-04-01T10:26:23;11.40;99.90
12557;DHT22;6344;49.932;8.308;2023-04-01T10:29:02;11.40;99.90
12557;DHT22;6344;49.932;8.308;2023-04-01T10:31:52;11.40;99.90
12557;DHT22;6344;49.932;8.308;2023-04-01T10:37:42;11.50;99.90
12557;DHT22;6344;49.932;8.308;2023-04-01T10:40:38;11.60;99.90
12557;DHT22;6344;49.932;8.308;2023-04-01T10:43:34;11.80;99.90
12557;DHT22;6344;49.932;8.308;2023-04-01T10:49:33;12.00;99.90
12557;DHT22;6344;49.932;8.308;2023-04-01T10:52:42;12.00;99.90
12557;DHT22;6344;49.932;8.308;2023-04-01T10:55:36;12.00;99.90
12557;DHT22;6344;49.932;8.308;2023-04-01T11:01:18;12.30;99.90
12557;DHT22;6344;49.932;8.308;2023-04-01T11:07:19;12.20;99.90
12557;DHT22;6344;49.932;8.308;2023-04-01T11:10:12;12.00;99.90
12557;DHT22;6344;49.932;8.308;2023-04-01T11:13:09;11.90;99.90
12557;DHT22;6344;49.932;8.308;2023-04-01T11:21:49;11.90;99.90
12557;DHT22;6344;49.932;8.308;2023-04-01T11:24:29;11.90;99.90
12557;DHT22;6344;49.932;8.308;2023-04-01T11:27:14;11.90;99.90
12557;DHT22;6344;49.932;8.308;2023-04-01T11:30:01;11.90;99.90
12557;DHT22;6344;49.932;8.308;2023-04-01T11:32:43;11.90;99.90
12557;DHT22;6344;49.932;8.308;2023-04-01T11:38:18;12.10;99.90
12557;DHT22;6344;49.932;8.308;2023-04-01T11:40:51;12.10;99.90
12557;DHT22;6344;49.932;8.308;2023-04-01T11:43:25;12.20;99.90
12557;DHT22;6344;49.932;8.308;2023-04-01T11:46:00;12.40;99.90
12557;DHT22;6344;49.932;8.308;2023-04-01T11:48:40;12.50;99.90
12557;DHT22;6344;49.932;8.308;2023-04-01T11:51:29;12.50;99.90
12557;DHT22;6344;49.932;8.308;2023-04-01T11:54:04;12.50;99.90
12557;DHT22;6344;49.932;8.308;2023-04-01T11:56:49;12.40;99.90
12557;DHT22;6344;49.932;8.308;2023-04-01T11:59:47;12.50;99.90
12557;DHT22;6344;49.932;8.308;2023-04-01T12:02:25;12.30;99.90
12557;DHT22;6344;49.932;8.308;2023-04-01T12:05:11;12.30;99.90
12557;DHT22;6344;49.932;8.308;2023-04-01T12:07:53;12.30;99.90
12557;DHT22;6344;49.932;8.308;2023-04-01T12:10:24;12.20;99.90
12557;DHT22;6344;49.932;8.308;2023-04-01T12:12:59;12.40;99.90
12557;DHT22;6344;49.932;8.308;2023-04-01T12:15:36;12.40;99.90
12557;DHT22;6344;49.932;8.308;2023-04-01T12:18:15;12.60;99.90
12557;DHT22;6344;49.932;8.308;2023-04-01T12:20:49;12.70;99.90
12557;DHT22;6344;49.932;8.308;2023-04-01T12:23:30;12.70;99.90
12557;DHT22;6344;49.932;8.308;2023-04-01T12:26:27;12.40;99.90
12557;DHT22;6344;49.932;8.308;2023-04-01T12:31:59;12.30;99.90
12557;DHT22;6344;49.932;8.308;2023-04-01T12:34:50;12.30;99.90
12557;DHT22;6344;49.932;8.308;2023-04-01T12:37:29;12.40;99.90
12557;DHT22;6344;49.932;8.308;2023-04-01T12:40:24;12.30;99.90
12557;DHT22;6344;49.932;8.308;2023-04-01T12:43:17;11.90;99.90
12557;DHT22;6344;49.932;8.308;2023-04-01T12:45:51;11.80;99.90
12557;DHT22;6344;49.932;8.308;2023-04-01T12:48:32;11.80;99.90
12557;DHT22;6344;49.932;8.308;2023-04-01T12:51:28;11.80;99.90
12557;DHT22;6344;49.932;8.308;2023-04-01T12:57:03;11.60;99.90
12557;DHT22;6344;49.932;8.308;2023-04-01T12:59:45;11.60;99.90
12557;DHT22;6344;49.932;8.308;2023-04-01T13:02:25;11.70;99.90
12557;DHT22;6344;49.932;8.308;2023-04-01T13:05:19;12.00;99.90
12557;DHT22;6344;49.932;8.308;2023-04-01T13:08:13;12.20;99.90
12557;DHT22;6344;49.932;8.308;2023-04-01T13:11:02;12.30;99.90
12557;DHT22;6344;49.932;8.308;2023-04-01T13:14:07;12.40;99.90
12557;DHT22;6344;49.932;8.308;2023-04-01T13:16:39;12.50;99.90
12557;DHT22;6344;49.932;8.308;2023-04-01T13:19:14;12.60;99.90
12557;DHT22;6344;49.932;8.308;2023-04-01T13:21:51;12.80;99.90
12557;DHT22;6344;49.932;8.308;2023-04-01T13:24:31;12.80;99.90
12557;DHT22;6344;49.932;8.308;2023-04-01T13:27:06;13.00;99.90
12557;DHT22;6344;49.932;8.308;2023-04-01T13:29:38;12.90;99.90
12557;DHT22;6344;49.932;8.308;2023-04-01T13:32:20;13.00;99.90
12557;DHT22;6344;49.932;8.308;2023-04-01T13:35:00;13.30;99.90
12557;DHT22;6344;49.932;8.308;2023-04-01T13:37:42;13.60;99.90
12557;DHT22;6344;49.932;8.308;2023-04-01T13:40:22;13.60;99.90
12557;DHT22;6344;49.932;8.308;2023-04-01T13:42:53;13.50;99.90
12557;DHT22;6344;49.932;8.308;2023-04-01T13:45:26;13.40;99.90
12557;DHT22;6344;49.932;8.308;2023-04-01T13:48:11;13.10;99.90
12557;DHT22;6344;49.932;8.308;2023-04-01T13:54:09;13.20;99.90
12557;DHT22;6344;49.932;8.308;2023-04-01T13:56:43;13.50;99.90
12557;DHT22;6344;49.932;8.308;2023-04-01T13:59:40;13.50;99.90
12557;DHT22;6344;49.932;8.308;2023-04-01T14:02:29;13.40;99.90
12557;DHT22;6344;49.932;8.308;2023-04-01T14:05:14;13.40;99.90
12557;DHT22;6344;49.932;8.308;2023-04-01T14:07:58;13.20;99.90
12557;DHT22;6344;49.932;8.308;2023-04-01T14:10:33;13.00;99.90
12557;DHT22;6344;49.932;8.308;2023-04-01T14:13:08;12.80;99.90
12557;DHT22;6344;49.932;8.308;2023-04-01T14:16:00;12.60;99.90
12557;DHT22;6344;49.932;8.308;2023-04-01T14:18:42;12.60;99.90
12557;DHT22;6344;49.932;8.308;2023-04-01T14:21:19;12.80;99.90
12557;DHT22;6344;49.932;8.308;2023-04-01T14:23:57;13.00;99.90
12557;DHT22;6344;49.932;8.308;2023-04-01T14:26:44;13.30;99.90
12557;DHT22;6344;49.932;8.308;2023-04-01T14:29:23;13.60;99.90
12557;DHT22;6344;49.932;8.308;2023-04-01T14:32:02;13.60;99.90
12557;DHT22;6344;49.932;8.308;2023-04-01T14:34:43;13.60;99.90
12557;DHT22;6344;49.932;8.308;2023-04-01T14:37:23;13.40;99.90
12557;DHT22;6344;49.932;8.308;2023-04-01T14:43:19;13.40;99.90
12557;DHT22;6344;49.932;8.308;2023-04-01T14:46:08;13.30;99.90
12557;DHT22;6344;49.932;8.308;2023-04-01T14:48:39;13.10;99.90
12557;DHT22;6344;49.932;8.308;2023-04-01T14:51:18;13.10;99.90
12557;DHT22;6344;49.932;8.308;2023-04-01T14:53:56;13.10;99.90
12557;DHT22;6344;49.932;8.308;2023-04-01T14:56:36;13.20;99.90
12557;DHT22;6344;49.932;8.308;2023-04-01T14:59:09;13.10;99.90
12557;DHT22;6344;49.932;8.308;2023-04-01T15:01:43;13.20;99.90
12557;DHT22;6344;49.932;8.308;2023-04-01T15:04:44;13.00;99.90
12557;DHT22;6344;49.932;8.308;2023-04-01T15:10:18;12.80;99.90
12557;DHT22;6344;49.932;8.308;2023-04-01T15:12:57;13.00;99.90
12557;DHT22;6344;49.932;8.308;2023-04-01T15:15:35;13.40;99.90
12557;DHT22;6344;49.932;8.308;2023-04-01T15:18:08;13.70;99.90
12557;DHT22;6344;49.932;8.308;2023-04-01T15:20:49;13.80;99.90
12557;DHT22;6344;49.932;8.308;2023-04-01T15:23:28;13.50;99.90
12557;DHT22;6344;49.932;8.308;2023-04-01T15:26:16;13.40;99.90
12557;DHT22;6344;49.932;8.308;2023-04-01T15:28:53;13.40;99.90
12557;DHT22;6344;49.932;8.308;2023-04-01T15:31:26;13.50;99.90
12557;DHT22;6344;49.932;8.308;2023-04-01T15:34:07;13.80;99.90
12557;DHT22;6344;49.932;8.308;2023-04-01T15:36:42;13.80;99.90
12557;DHT22;6344;49.932;8.308;2023-04-01T15:39:14;13.80;99.90
12557;DHT22;6344;49.932;8.308;2023-04-01T15:41:53;13.90;99.90
12557;DHT22;6344;49.932;8.308;2023-04-01T15:44:41;13.70;99.90
12557;DHT22;6344;49.932;8.308;2023-04-01T15:47:35;13.60;99.90
12557;DHT22;6344;49.932;8.308;2023-04-01T15:50:37;13.50;99.90
12557;DHT22;6344;49.932;8.308;2023-04-01T15:53:23;13.20;99.90
12557;DHT22;6344;49.932;8.308;2023-04-01T15:55:56;13.00;99.90
12557;DHT22;6344;49.932;8.308;2023-04-01T15:58:42;12.60;99.90
12557;DHT22;6344;49.932;8.308;2023-04-01T16:01:19;12.20;99.90
12557;DHT22;6344;49.932;8.308;2023-04-01T16:03:54;12.10;99.90
12557;DHT22;6344;49.932;8.308;2023-04-01T16:06:53;12.10;99.90
12557;DHT22;6344;49.932;8.308;2023-04-01T16:09:43;12.10;99.90
12557;DHT22;6344;49.932;8.308;2023-04-01T16:12:19;12.10;99.90
12557;DHT22;6344;49.932;8.308;2023-04-01T16:15:01;12.10;99.90
12557;DHT22;6344;49.932;8.308;2023-04-01T16:17:53;12.00;99.90
12557;DHT22;6344;49.932;8.308;2023-04-01T16:20:27;12.00;99.90
12557;DHT22;6344;49.932;8.308;2023-04-01T16:23:09;12.10;99.90
12557;DHT22;6344;49.932;8.308;2023-04-01T16:25:39;12.00;99.90
12557;DHT22;6344;49.932;8.308;2023-04-01T16:28:19;11.70;99.90
12557;DHT22;6344;49.932;8.308;2023-04-01T16:30:56;11.50;99.90
12557;DHT22;6344;49.932;8.308;2023-04-01T16:33:32;11.50;99.90
12557;DHT22;6344;49.932;8.308;2023-04-01T16:36:10;11.40;99.90
12557;DHT22;6344;49.932;8.308;2023-04-01T16:38:41;11.50;99.90
12557;DHT22;6344;49.932;8.308;2023-04-01T16:41:17;11.50;99.90
12557;DHT22;6344;49.932;8.308;2023-04-01T16:43:48;11.40;99.90
12557;DHT22;6344;49.932;8.308;2023-04-01T16:46:32;11.40;99.90
12557;DHT22;6344;49.932;8.308;2023-04-01T16:49:17;11.30;99.90
12557;DHT22;6344;49.932;8.308;2023-04-01T16:51:53;11.20;99.90
12557;DHT22;6344;49.932;8.308;2023-04-01T16:54:28;11.20;99.90
12557;DHT22;6344;49.932;8.308;2023-04-01T16:57:03;11.10;99.90
12557;DHT22;6344;49.932;8.308;2023-04-01T16:59:35;11.20;99.90
12557;DHT22;6344;49.932;8.308;2023-04-01T17:02:08;11.20;99.90
12557;DHT22;6344;49.932;8.308;2023-04-01T17:04:40;11.20;99.90
12557;DHT22;6344;49.932;8.308;2023-04-01T17:07:21;11.20;99.90
12557;DHT22;6344;49.932;8.308;2023-04-01T17:10:06;11.20;99.90
12557;DHT22;6344;49.932;8.308;2023-04-01T17:12:47;11.20;99.90
12557;DHT22;6344;49.932;8.308;2023-04-01T17:15:24;11.20;99.90
12557;DHT22;6344;49.932;8.308;2023-04-01T17:17:58;11.20;99.90
12557;DHT22;6344;49.932;8.308;2023-04-01T17:20:32;11.20;99.90
12557;DHT22;6344;49.932;8.308;2023-04-01T17:23:12;11.10;99.90
12557;DHT22;6344;49.932;8.308;2023-04-01T17:25:53;11.10;99.90
12557;DHT22;6344;49.932;8.308;2023-04-01T17:28:33;11.00;99.90
12557;DHT22;6344;49.932;8.308;2023-04-01T17:31:07;10.80;99.90
12557;DHT22;6344;49.932;8.308;2023-04-01T17:33:58;10.80;99.90
12557;DHT22;6344;49.932;8.308;2023-04-01T17:36:36;10.90;99.90
12557;DHT22;6344;49.932;8.308;2023-04-01T17:39:30;10.90;99.90
12557;DHT22;6344;49.932;8.308;2023-04-01T17:42:06;10.90;99.90
12557;DHT22;6344;49.932;8.308;2023-04-01T17:44:44;10.90;99.90
12557;DHT22;6344;49.932;8.308;2023-04-01T17:47:25;10.80;99.90
12557;DHT22;6344;49.932;8.308;2023-04-01T17:50:07;10.90;99.90
12557;DHT22;6344;49.932;8.308;2023-04-01T17:52:42;10.80;99.90
12557;DHT22;6344;49.932;8.308;2023-04-01T17:55:37;10.80;99.90
12557;DHT22;6344;49.932;8.308;2023-04-01T17:58:10;10.70;99.90
12557;DHT22;6344;49.932;8.308;2023-04-01T18:00:51;10.60;99.90